createdAt,value
2023-09-02T00:02:19.028Z,12.63
2023-09-02T00:04:47.427Z,13.13
2023-09-02T00:07:15.984Z,11.87
2023-09-02T00:09:44.531Z,11.70
2023-09-02T00:12:14.473Z,14.83
2023-09-02T00:14:42.897Z,12.73
2023-09-02T00:17:11.792Z,11.23
2023-09-02T00:19:41.452Z,15.27
2023-09-02T00:22:09.875Z,15.80
2023-09-02T00:24:39.895Z,11.20
2023-09-02T00:27:08.247Z,11.30
2023-09-02T00:29:38.051Z,10.50
2023-09-02T00:32:07.418Z,11.07
2023-09-02T00:34:36.325Z,10.73
2023-09-02T00:37:05.376Z,11.93
2023-09-02T00:39:34.086Z,11.63
2023-09-02T00:42:02.552Z,11.17
2023-09-02T00:44:31.408Z,13.83
2023-09-02T00:47:01.262Z,12.53
2023-09-02T00:49:29.732Z,18.73
2023-09-02T00:51:58.144Z,14.60
2023-09-02T00:54:26.522Z,14.53
2023-09-02T00:56:55.009Z,13.33
2023-09-02T00:59:23.847Z,17.83
2023-09-02T01:01:52.254Z,14.23
2023-09-02T01:04:22.715Z,14.50
2023-09-02T01:06:51.200Z,12.60
2023-09-02T01:09:19.579Z,18.93
2023-09-02T01:11:48.015Z,15.27
2023-09-02T01:14:16.626Z,13.77
2023-09-02T01:16:45.096Z,15.07
2023-09-02T01:19:16.961Z,22.63
2023-09-02T01:22:13.189Z,14.70
2023-09-02T01:25:07.425Z,12.50
2023-09-02T01:27:39.420Z,14.93
2023-09-02T01:30:10.660Z,12.33
2023-09-02T01:32:43.471Z,15.33
2023-09-02T01:35:15.207Z,14.37
2023-09-02T01:37:44.384Z,14.77
2023-09-02T01:40:23.008Z,13.90
2023-09-02T01:42:53.335Z,12.27
2023-09-02T01:45:23.811Z,12.73
2023-09-02T01:47:52.618Z,12.03
2023-09-02T01:50:23.766Z,12.13
2023-09-02T01:52:52.629Z,11.67
2023-09-02T01:55:21.052Z,13.20
2023-09-02T01:57:49.419Z,13.03
2023-09-02T02:00:20.111Z,12.37
2023-09-02T02:02:50.350Z,13.27
2023-09-02T02:05:19.842Z,14.20
2023-09-02T02:07:55.647Z,14.17
2023-09-02T02:10:25.703Z,13.53
2023-09-02T02:12:54.178Z,13.73
2023-09-02T02:15:24.225Z,14.03
2023-09-02T02:17:52.680Z,22.33
2023-09-02T02:20:22.435Z,20.90
2023-09-02T02:22:50.827Z,14.93
2023-09-02T02:25:19.682Z,15.60
2023-09-02T02:27:48.070Z,15.40
2023-09-02T02:30:16.528Z,13.20
2023-09-02T02:32:46.268Z,12.97
2023-09-02T02:35:15.244Z,13.40
2023-09-02T02:37:44.415Z,12.93
2023-09-02T02:40:18.710Z,12.57
2023-09-02T02:42:47.300Z,14.53
2023-09-02T02:45:16.066Z,13.13
2023-09-02T02:47:45.870Z,14.57
2023-09-02T02:50:14.551Z,13.53
2023-09-02T02:52:42.982Z,15.33
2023-09-02T02:55:11.447Z,14.43
2023-09-02T02:57:39.860Z,14.40
2023-09-02T03:00:10.371Z,14.30
2023-09-02T03:02:38.892Z,13.50
2023-09-02T03:05:09.787Z,13.80
2023-09-02T03:07:40.511Z,14.27
2023-09-02T03:10:09.684Z,13.17
2023-09-02T03:12:38.482Z,14.30
2023-09-02T03:15:08.343Z,13.63
2023-09-02T03:17:36.788Z,14.30
2023-09-02T03:20:06.250Z,13.90
2023-09-02T03:22:36.103Z,14.63
2023-09-02T03:25:04.711Z,13.80
2023-09-02T03:27:33.094Z,13.77
2023-09-02T03:30:00.518Z,15.13
2023-09-02T03:32:28.856Z,13.13
2023-09-02T03:34:57.803Z,13.07
2023-09-02T03:37:26.338Z,12.93
2023-09-02T03:39:56.142Z,12.43
2023-09-02T03:42:24.632Z,12.90
2023-09-02T03:44:53.629Z,14.73
2023-09-02T03:47:22.035Z,15.23
2023-09-02T03:49:52.467Z,13.27
2023-09-02T03:52:20.895Z,11.63
2023-09-02T03:54:49.329Z,12.10
2023-09-02T03:57:19.164Z,15.30
2023-09-02T03:59:47.547Z,16.27
2023-09-02T04:02:16.601Z,14.00
2023-09-02T04:04:45.043Z,19.73
2023-09-02T04:07:13.460Z,13.57
2023-09-02T04:09:41.795Z,15.53
2023-09-02T04:12:10.470Z,12.30
2023-09-02T04:14:40.272Z,12.80
2023-09-02T04:17:08.734Z,13.90
2023-09-02T04:19:37.607Z,14.40
2023-09-02T04:22:06.249Z,14.73
2023-09-02T04:24:34.661Z,16.33
2023-09-02T04:27:03.071Z,18.40
2023-09-02T04:29:31.499Z,20.73
2023-09-02T04:32:01.474Z,18.43
2023-09-02T04:34:29.959Z,19.23
2023-09-02T04:36:58.370Z,20.33
2023-09-02T04:39:26.777Z,20.80
2023-09-02T04:41:55.231Z,17.80
2023-09-02T04:44:23.634Z,19.03
2023-09-02T04:46:52.004Z,22.13
2023-09-02T04:49:22.066Z,16.03
2023-09-02T04:51:50.893Z,15.37
2023-09-02T04:54:19.299Z,16.60
2023-09-02T04:56:47.777Z,16.47
2023-09-02T04:59:16.202Z,21.57
2023-09-02T05:01:44.780Z,17.23
2023-09-02T05:04:13.219Z,15.00
2023-09-02T05:06:43.279Z,16.20
2023-09-02T05:09:11.640Z,14.83
2023-09-02T05:11:40.047Z,15.40
2023-09-02T05:14:08.453Z,21.30
2023-09-02T05:16:36.953Z,19.80
2023-09-02T05:19:05.536Z,17.20
2023-09-02T05:21:33.934Z,18.10
2023-09-02T05:24:03.906Z,16.03
2023-09-02T05:26:32.340Z,15.33
2023-09-02T05:29:00.780Z,17.80
2023-09-02T05:31:29.263Z,15.17
2023-09-02T05:33:57.646Z,16.50
2023-09-02T05:36:26.060Z,20.30
2023-09-02T05:38:55.558Z,19.10
2023-09-02T05:41:26.253Z,26.83
2023-09-02T05:43:55.971Z,20.03
2023-09-02T05:46:24.529Z,17.57
2023-09-02T05:48:53.255Z,20.50
2023-09-02T05:51:21.584Z,18.63
2023-09-02T05:53:50.051Z,19.07
2023-09-02T05:56:18.447Z,17.30
2023-09-02T05:58:48.291Z,14.00
2023-09-02T06:01:16.695Z,17.43
2023-09-02T06:03:45.106Z,15.27
2023-09-02T06:06:13.761Z,18.23
2023-09-02T06:08:42.202Z,17.60
2023-09-02T06:11:10.605Z,14.73
2023-09-02T06:13:39.117Z,18.67
2023-09-02T06:16:09.363Z,16.30
2023-09-02T06:18:38.115Z,18.27
2023-09-02T06:21:13.220Z,21.37
2023-09-02T06:23:43.783Z,19.83
2023-09-02T06:26:12.901Z,22.50
2023-09-02T06:28:41.585Z,26.87
2023-09-02T06:31:11.626Z,28.87
2023-09-02T06:33:40.413Z,24.53
2023-09-02T06:36:12.517Z,27.37
2023-09-02T06:38:41.033Z,20.90
2023-09-02T06:41:13.131Z,23.60
2023-09-02T06:43:41.670Z,26.87
2023-09-02T06:46:13.285Z,20.93
2023-09-02T06:48:41.733Z,22.47
2023-09-02T06:51:10.175Z,25.00
2023-09-02T06:53:38.618Z,29.03
2023-09-02T06:56:09.512Z,25.10
2023-09-02T06:58:40.238Z,24.53
2023-09-02T07:01:08.721Z,18.80
2023-09-02T07:03:38.684Z,19.03
2023-09-02T07:06:07.869Z,20.43
2023-09-02T07:08:36.530Z,16.97
2023-09-02T07:11:06.733Z,16.90
2023-09-02T07:13:35.233Z,17.30
2023-09-02T07:16:03.958Z,22.47
2023-09-02T07:18:32.680Z,15.90
2023-09-02T07:21:02.874Z,11.30
2023-09-02T07:23:33.646Z,13.20
2023-09-02T07:26:05.530Z,10.80
2023-09-02T07:28:34.883Z,9.07
2023-09-02T07:31:03.655Z,9.80
2023-09-02T07:33:32.193Z,17.93
2023-09-02T07:36:08.455Z,8.73
2023-09-02T07:38:39.415Z,9.50
2023-09-02T07:41:10.007Z,7.90
2023-09-02T07:43:38.555Z,10.30
2023-09-02T07:46:07.186Z,8.97
2023-09-02T07:48:35.770Z,7.43
2023-09-02T07:51:05.676Z,6.40
2023-09-02T07:53:34.109Z,9.60
2023-09-02T07:56:02.696Z,5.73
2023-09-02T07:58:30.030Z,6.73
2023-09-02T08:00:58.742Z,8.90
2023-09-02T08:03:27.312Z,7.83
2023-09-02T08:05:55.812Z,3.90
2023-09-02T08:08:25.694Z,5.87
2023-09-02T08:11:04.136Z,5.40
2023-09-02T08:13:32.691Z,4.77
2023-09-02T08:16:01.319Z,5.03
2023-09-02T08:18:29.770Z,7.63
2023-09-02T08:20:58.211Z,4.80
2023-09-02T08:23:27.968Z,7.33
2023-09-02T08:25:56.424Z,5.23
2023-09-02T08:28:25.977Z,3.90
2023-09-02T08:30:54.419Z,12.37
2023-09-02T08:33:22.814Z,9.43
2023-09-02T08:35:51.285Z,5.87
2023-09-02T08:38:19.738Z,6.33
2023-09-02T08:40:49.551Z,7.37
2023-09-02T08:43:18.091Z,3.30
2023-09-02T08:45:46.722Z,5.03
2023-09-02T08:48:25.061Z,3.70
2023-09-02T08:50:55.145Z,4.23
2023-09-02T08:53:23.576Z,6.93
2023-09-02T08:55:53.529Z,4.50
2023-09-02T08:58:22.037Z,5.80
2023-09-02T09:00:50.521Z,7.37
2023-09-02T09:03:19.192Z,3.60
2023-09-02T09:05:47.812Z,3.53
2023-09-02T09:08:16.230Z,2.77
2023-09-02T09:10:44.643Z,4.30
2023-09-02T09:13:15.326Z,3.73
2023-09-02T09:15:43.877Z,2.87
2023-09-02T09:18:13.475Z,5.60
2023-09-02T09:20:41.918Z,3.57
2023-09-02T09:23:10.381Z,5.67
2023-09-02T09:25:38.808Z,3.10
2023-09-02T09:28:11.106Z,3.40
2023-09-02T09:30:40.955Z,2.57
2023-09-02T09:33:09.939Z,3.57
2023-09-02T09:35:38.367Z,4.63
2023-09-02T09:38:07.753Z,4.60
2023-09-02T09:40:37.073Z,4.57
2023-09-02T09:43:16.771Z,3.57
2023-09-02T09:45:53.001Z,4.57
2023-09-02T09:48:21.445Z,4.03
2023-09-02T09:50:49.792Z,3.70
2023-09-02T09:53:18.397Z,4.77
2023-09-02T09:55:47.026Z,3.63
2023-09-02T09:58:15.442Z,5.23
2023-09-02T10:00:44.041Z,3.03
2023-09-02T10:03:13.864Z,2.60
2023-09-02T10:05:42.394Z,2.63
2023-09-02T10:08:11.216Z,5.07
2023-09-02T10:10:41.372Z,3.23
2023-09-02T10:13:09.826Z,2.93
2023-09-02T10:15:38.791Z,3.67
2023-09-02T10:18:07.501Z,3.17
2023-09-02T10:20:39.622Z,2.80
2023-09-02T10:23:09.117Z,4.40
2023-09-02T10:25:46.453Z,6.47
2023-09-02T10:28:18.175Z,5.33
2023-09-02T10:30:49.748Z,7.27
2023-09-02T10:33:23.178Z,9.23
2023-09-02T10:36:00.741Z,5.17
2023-09-02T10:38:31.486Z,3.80
2023-09-02T10:41:09.165Z,3.63
2023-09-02T10:43:37.918Z,3.10
2023-09-02T10:46:06.379Z,3.90
2023-09-02T10:48:35.115Z,2.63
2023-09-02T10:51:05.134Z,3.10
2023-09-02T10:53:59.529Z,5.20
2023-09-02T10:56:28.232Z,2.93
2023-09-02T10:58:56.733Z,5.80
2023-09-02T11:01:26.120Z,4.67
2023-09-02T11:03:55.991Z,3.20
2023-09-02T11:06:25.839Z,5.00
2023-09-02T11:08:54.952Z,4.97
2023-09-02T11:11:23.444Z,2.50
2023-09-02T11:14:20.281Z,2.80
2023-09-02T11:17:12.262Z,5.30
2023-09-02T11:20:00.187Z,9.13
2023-09-02T11:22:53.356Z,3.90
2023-09-02T11:25:35.850Z,3.20
2023-09-02T11:28:05.493Z,2.83
2023-09-02T11:30:36.873Z,6.03
2023-09-02T11:33:06.135Z,10.07
2023-09-02T11:35:35.787Z,3.53
2023-09-02T11:38:18.512Z,2.70
2023-09-02T11:40:48.083Z,2.40
2023-09-02T11:43:21.327Z,3.80
2023-09-02T11:45:50.274Z,2.20
2023-09-02T11:48:18.752Z,2.57
2023-09-02T11:50:47.193Z,2.50
2023-09-02T11:53:17.292Z,2.50
2023-09-02T11:55:46.228Z,2.50
2023-09-02T11:58:18.845Z,3.17
2023-09-02T12:00:47.365Z,4.43
2023-09-02T12:03:24.734Z,2.43
2023-09-02T12:05:54.696Z,2.50
2023-09-02T12:08:24.773Z,3.23
2023-09-02T12:10:54.802Z,2.43
2023-09-02T12:13:23.457Z,2.30
2023-09-02T12:15:52.982Z,3.23
2023-09-02T12:18:21.743Z,2.23
2023-09-02T12:20:50.301Z,2.43
2023-09-02T12:23:19.218Z,3.37
2023-09-02T12:26:05.628Z,3.07
2023-09-02T12:28:34.118Z,4.57
2023-09-02T12:31:08.558Z,2.53
2023-09-02T12:33:39.386Z,3.00
2023-09-02T12:36:08.161Z,2.70
2023-09-02T12:38:51.062Z,2.30
2023-09-02T12:41:20.862Z,2.87
2023-09-02T12:43:49.384Z,3.30
2023-09-02T12:46:22.716Z,2.70
2023-09-02T12:48:52.029Z,4.00
2023-09-02T12:51:29.734Z,2.80
2023-09-02T12:54:00.142Z,2.13
2023-09-02T12:56:31.052Z,2.67
2023-09-02T12:58:59.473Z,2.70
2023-09-02T13:01:27.910Z,5.10
2023-09-02T13:03:57.173Z,2.67
2023-09-02T13:06:28.140Z,2.80
2023-09-02T13:08:56.790Z,7.20
2023-09-02T13:11:26.749Z,2.40
2023-09-02T13:13:56.752Z,2.40
2023-09-02T13:16:26.128Z,3.33
2023-09-02T13:18:54.598Z,3.73
2023-09-02T13:21:23.556Z,2.60
2023-09-02T13:23:53.723Z,2.87
2023-09-02T13:26:22.302Z,4.53
2023-09-02T13:28:50.817Z,3.70
2023-09-02T13:31:23.501Z,2.40
2023-09-02T13:33:51.897Z,2.73
2023-09-02T13:36:20.314Z,2.40
2023-09-02T13:38:48.666Z,3.00
2023-09-02T13:41:17.119Z,2.97
2023-09-02T13:43:44.667Z,3.60
2023-09-02T13:46:13.057Z,2.80
2023-09-02T13:48:42.888Z,2.70
2023-09-02T13:51:14.793Z,4.53
2023-09-02T13:53:43.151Z,2.63
2023-09-02T13:56:13.639Z,4.20
2023-09-02T13:58:42.395Z,2.80
2023-09-02T14:01:10.773Z,3.20
2023-09-02T14:03:39.217Z,3.00
2023-09-02T14:06:09.099Z,2.83
2023-09-02T14:08:38.241Z,3.00
2023-09-02T14:11:06.923Z,5.50
2023-09-02T14:13:38.770Z,4.63
2023-09-02T14:16:07.563Z,4.63
2023-09-02T14:18:36.173Z,2.93
2023-09-02T14:21:04.757Z,4.23
2023-09-02T14:23:34.825Z,5.87
2023-09-02T14:26:03.351Z,3.50
2023-09-02T14:28:32.416Z,3.13
2023-09-02T14:31:01.093Z,3.57
2023-09-02T14:33:29.567Z,3.37
2023-09-02T14:35:58.596Z,2.80
2023-09-02T14:38:27.089Z,4.43
2023-09-02T14:40:56.890Z,3.20
2023-09-02T14:43:25.387Z,3.77
2023-09-02T14:45:53.825Z,2.77
2023-09-02T14:48:23.607Z,4.40
2023-09-02T14:50:52.035Z,4.07
2023-09-02T14:53:20.833Z,3.67
2023-09-02T14:55:51.073Z,3.60
2023-09-02T14:58:20.852Z,8.50
2023-09-02T15:00:49.566Z,4.17
2023-09-02T15:03:26.192Z,3.57
2023-09-02T15:05:57.720Z,4.17
2023-09-02T15:08:26.346Z,7.83
2023-09-02T15:10:54.888Z,3.30
2023-09-02T15:13:24.817Z,5.70
2023-09-02T15:15:53.552Z,4.80
2023-09-02T15:18:24.991Z,8.93
2023-09-02T15:20:53.543Z,3.70
2023-09-02T15:23:22.230Z,3.80
2023-09-02T15:25:51.548Z,5.77
2023-09-02T15:28:20.005Z,5.37
2023-09-02T15:30:49.812Z,3.97
2023-09-02T15:33:18.447Z,3.07
2023-09-02T15:35:47.173Z,6.60
2023-09-02T15:38:17.363Z,4.37
2023-09-02T15:40:45.802Z,3.90
2023-09-02T15:43:14.358Z,5.70
2023-09-02T15:45:42.940Z,3.40
2023-09-02T15:48:12.876Z,3.53
2023-09-02T15:50:41.312Z,3.40
2023-09-02T15:53:09.726Z,4.00
2023-09-02T15:55:38.178Z,3.50
2023-09-02T15:58:06.995Z,10.53
2023-09-02T16:00:35.503Z,5.47
2023-09-02T16:03:04.587Z,3.73
2023-09-02T16:05:34.807Z,2.90
2023-09-02T16:08:04.774Z,5.10
2023-09-02T16:10:34.010Z,4.80
2023-09-02T16:13:02.413Z,3.73
2023-09-02T16:15:30.965Z,3.17
2023-09-02T16:17:59.458Z,8.33
2023-09-02T16:20:28.069Z,5.77
2023-09-02T16:22:57.909Z,6.10
2023-09-02T16:25:26.337Z,3.53
2023-09-02T16:27:54.778Z,4.00
2023-09-02T16:30:23.188Z,2.97
2023-09-02T16:32:51.632Z,3.63
2023-09-02T16:35:22.845Z,3.37
2023-09-02T16:37:51.308Z,3.00
2023-09-02T16:40:22.488Z,3.50
2023-09-02T16:42:51.197Z,3.77
2023-09-02T16:45:19.622Z,4.50
2023-09-02T16:47:49.220Z,5.47
2023-09-02T16:50:19.296Z,6.23
2023-09-02T16:52:48.819Z,4.10
2023-09-02T16:55:18.215Z,5.40
2023-09-02T16:57:49.192Z,6.23
2023-09-02T17:00:19.115Z,3.00
2023-09-02T17:02:48.389Z,8.27
2023-09-02T17:05:18.292Z,7.60
2023-09-02T17:07:47.052Z,6.93
2023-09-02T17:10:19.006Z,11.13
2023-09-02T17:12:49.393Z,16.90
2023-09-02T17:15:18.261Z,21.00
2023-09-02T17:17:51.846Z,22.93
2023-09-02T17:20:27.904Z,58.43
2023-09-02T17:22:56.679Z,27.27
2023-09-02T17:25:25.072Z,54.87
2023-09-02T17:27:57.142Z,31.63
2023-09-02T17:30:26.712Z,32.67
2023-09-02T17:32:55.439Z,70.37
2023-09-02T17:35:23.906Z,30.10
2023-09-02T17:37:52.353Z,18.90
2023-09-02T17:40:20.841Z,11.53
2023-09-02T17:42:49.331Z,5.23
2023-09-02T17:45:20.870Z,4.57
2023-09-02T17:47:49.854Z,4.60
2023-09-02T17:50:18.437Z,6.90
2023-09-02T17:52:46.833Z,5.30
2023-09-02T17:55:15.672Z,4.33
2023-09-02T17:57:44.250Z,3.80
2023-09-02T18:00:14.483Z,4.37
2023-09-02T18:02:44.936Z,4.50
2023-09-02T18:05:13.547Z,4.93
2023-09-02T18:07:41.972Z,4.30
2023-09-02T18:10:11.690Z,4.53
2023-09-02T18:12:40.228Z,5.57
2023-09-02T18:15:10.378Z,4.97
2023-09-02T18:17:39.037Z,4.83
2023-09-02T18:20:10.707Z,5.30
2023-09-02T18:22:39.116Z,6.63
2023-09-02T18:25:09.146Z,6.97
2023-09-02T18:27:37.599Z,9.37
2023-09-02T18:30:06.905Z,7.27
2023-09-02T18:32:35.340Z,11.90
2023-09-02T18:35:03.775Z,8.23
2023-09-02T18:37:33.522Z,13.90
2023-09-02T18:40:01.992Z,11.30
2023-09-02T18:42:30.566Z,13.20
2023-09-02T18:44:58.987Z,12.00
2023-09-02T18:47:27.508Z,8.13
2023-09-02T18:49:55.872Z,7.50
2023-09-02T18:52:24.378Z,7.23
2023-09-02T18:54:54.176Z,8.30
2023-09-02T18:57:22.556Z,10.93
2023-09-02T18:59:51.075Z,9.27
2023-09-02T19:02:19.534Z,8.83
2023-09-02T19:04:48.036Z,14.87
2023-09-02T19:07:16.550Z,7.60
2023-09-02T19:09:45.014Z,8.80
2023-09-02T19:12:15.081Z,7.30
2023-09-02T19:14:43.503Z,8.20
2023-09-02T19:17:11.938Z,6.77
2023-09-02T19:19:40.465Z,7.03
2023-09-02T19:22:08.872Z,7.77
2023-09-02T19:24:37.373Z,7.33
2023-09-02T19:27:06.394Z,13.87
2023-09-02T19:29:36.130Z,11.17
2023-09-02T19:32:04.726Z,13.10
2023-09-02T19:34:33.157Z,14.93
2023-09-02T19:37:04.862Z,18.47
2023-09-02T19:39:34.615Z,11.37
2023-09-02T19:42:03.048Z,9.60
2023-09-02T19:44:33.514Z,11.60
2023-09-02T19:47:03.308Z,15.23
2023-09-02T19:49:31.768Z,12.17
2023-09-02T19:52:00.097Z,16.37
2023-09-02T19:54:28.492Z,11.33
2023-09-02T19:56:57.225Z,10.70
2023-09-02T19:59:25.723Z,13.13
2023-09-02T20:01:54.236Z,15.50
2023-09-02T20:04:24.145Z,19.03
2023-09-02T20:06:52.634Z,20.13
2023-09-02T20:09:22.145Z,26.67
2023-09-02T20:11:50.587Z,20.90
2023-09-02T20:14:18.934Z,21.63
2023-09-02T20:16:47.308Z,26.87
2023-09-02T20:19:15.739Z,20.60
2023-09-02T20:21:45.616Z,17.30
2023-09-02T20:24:14.080Z,20.47
2023-09-02T20:26:42.611Z,16.70
2023-09-02T20:29:17.914Z,27.90
2023-09-02T20:31:46.290Z,26.87
2023-09-02T20:34:14.736Z,24.77
2023-09-02T20:36:44.532Z,29.20
2023-09-02T20:39:13.453Z,25.90
2023-09-02T20:41:42.216Z,25.20
2023-09-02T20:44:11.038Z,28.20
2023-09-02T20:46:39.839Z,20.07
2023-09-02T20:49:08.982Z,22.03
2023-09-02T20:51:37.493Z,19.60
2023-09-02T20:54:08.168Z,19.10
2023-09-02T20:56:36.628Z,20.23
2023-09-02T20:59:05.184Z,20.00
2023-09-02T21:01:33.589Z,17.47
2023-09-02T21:04:01.949Z,18.43
2023-09-02T21:06:30.336Z,20.17
2023-09-02T21:08:58.798Z,17.17
2023-09-02T21:11:28.649Z,19.13
2023-09-02T21:13:57.054Z,19.20
2023-09-02T21:16:25.526Z,18.10
2023-09-02T21:18:54.050Z,18.13
2023-09-02T21:21:23.358Z,17.13
2023-09-02T21:23:51.910Z,21.03
2023-09-02T21:26:20.926Z,15.97
2023-09-02T21:28:52.212Z,14.43
2023-09-02T21:31:21.272Z,17.00
2023-09-02T21:33:50.950Z,18.43
2023-09-02T21:36:19.912Z,18.27
2023-09-02T21:38:48.974Z,23.07
2023-09-02T21:41:17.393Z,22.43
2023-09-02T21:43:45.797Z,21.83
2023-09-02T21:46:15.742Z,18.67
2023-09-02T21:48:44.166Z,18.33
2023-09-02T21:51:13.239Z,16.80
2023-09-02T21:53:42.319Z,13.33
2023-09-02T21:56:10.900Z,14.50
2023-09-02T21:58:39.468Z,14.50
2023-09-02T22:01:08.985Z,15.03
2023-09-02T22:03:39.210Z,17.93
2023-09-02T22:06:09.017Z,14.33
2023-09-02T22:08:37.638Z,14.10
2023-09-02T22:11:06.043Z,14.43
2023-09-02T22:13:34.514Z,15.63
2023-09-02T22:16:02.996Z,18.90
2023-09-02T22:18:31.370Z,26.07
2023-09-02T22:21:01.302Z,19.63
2023-09-02T22:23:30.062Z,19.00
2023-09-02T22:26:01.427Z,16.90
2023-09-02T22:28:30.024Z,17.00
2023-09-02T22:30:58.777Z,27.53
2023-09-02T22:33:28.240Z,18.20
2023-09-02T22:35:56.993Z,20.73
2023-09-02T22:38:48.076Z,18.30
2023-09-02T22:41:15.725Z,18.27
2023-09-02T22:43:44.098Z,14.27
2023-09-02T22:46:13.627Z,18.30
2023-09-02T22:48:42.286Z,15.73
2023-09-02T22:51:10.697Z,13.53
2023-09-02T22:53:41.263Z,13.60
2023-09-02T22:56:13.360Z,13.77
2023-09-02T22:58:41.870Z,12.83
2023-09-02T23:01:11.925Z,20.20
2023-09-02T23:03:41.021Z,22.80
2023-09-02T23:06:10.847Z,15.30
2023-09-02T23:08:41.187Z,19.03
2023-09-02T23:11:09.562Z,35.70
2023-09-02T23:13:38.627Z,17.43
2023-09-02T23:16:07.467Z,19.27
2023-09-02T23:18:35.896Z,19.23
2023-09-02T23:21:11.829Z,19.20
2023-09-02T23:23:41.684Z,16.37
2023-09-02T23:26:10.417Z,17.60
2023-09-02T23:28:39.967Z,19.30
2023-09-02T23:31:11.158Z,15.17
2023-09-02T23:33:40.604Z,16.13
2023-09-02T23:36:09.304Z,19.13
2023-09-02T23:38:37.697Z,17.20
2023-09-02T23:41:07.532Z,21.03
2023-09-02T23:43:35.907Z,12.57
2023-09-02T23:46:04.268Z,20.20
2023-09-02T23:48:32.748Z,18.67
2023-09-02T23:51:01.235Z,14.03
2023-09-02T23:53:29.600Z,12.40
2023-09-02T23:55:58.396Z,13.77
2023-09-02T23:58:28.221Z,14.53
